KALW/ALW METAR and TAF weather

Enter ICAO airport designator
Station Type Date Time Source
KALW METAR 2018/12/12 15:53 UTC NOAA

KALW 121553Z 21012KT 10SM FEW047 04/M01 A3016 RMK AO2 SLP219 T00441006


Station Type Date Time Source
KALW Decoded METAR 2018/12/12 15:53 UTC NOAA

WALLA WALLA REGIONAL AIRPORT, WA, United States (KALW) 46-06N 118-17W 363M
Dec 12, 2018 - 10:53 AM EST / 2018.12.12 1553 UTC
Wind: from the SSW (210 degrees) at 14 MPH (12 KT):0
Visibility: 10 mile(s):0
Sky conditions: mostly clear
Temperature: 39.9 F (4.4 C)
Dew Point: 30.9 F (-0.6 C)
Relative Humidity: 69%
Pressure (altimeter): 30.16 in. Hg (1021 hPa)
ob: KALW 121553Z 21012KT 10SM FEW047 04/M01 A3016 RMK AO2 SLP219 T00441006
cycle: 16

Station Type Date Time Source
KALW TAF 2018/12/12 12:39 UTC NOAA

TAF KALW 121137Z 1212/1312 22014G20KT P6SM SCT070 BKN120
FM122200 20011KT P6SM SCT050 BKN100
FM130200 17013KT P6SM OVC090


Example: see airport list